createdAt,value
2022-08-29T00:02:27.801Z,102157.59
2022-08-29T00:04:57.619Z,102158.47
2022-08-29T00:07:27.707Z,102165.59
2022-08-29T00:10:00.015Z,102152.31
2022-08-29T00:12:29.796Z,102170.94
2022-08-29T00:14:59.533Z,102156.66
2022-08-29T00:17:29.252Z,102157.50
2022-08-29T00:19:58.960Z,102149.44
2022-08-29T00:22:28.877Z,102154.72
2022-08-29T00:25:05.810Z,102154.72
2022-08-29T00:27:36.244Z,102153.88
2022-08-29T00:30:07.607Z,102157.44
2022-08-29T00:32:37.620Z,102151.22
2022-08-29T00:35:10.067Z,102149.50
2022-08-29T00:37:40.128Z,102151.28
2022-08-29T00:40:16.800Z,102153.94
2022-08-29T00:42:47.243Z,102151.28
2022-08-29T00:45:18.354Z,102148.63
2022-08-29T00:47:52.438Z,102146.88
2022-08-29T00:50:28.629Z,102139.84
2022-08-29T00:53:00.000Z,102144.38
2022-08-29T00:55:35.622Z,102145.31
2022-08-29T00:58:11.739Z,102136.47
2022-08-29T01:00:44.663Z,102137.41
2022-08-29T01:03:15.153Z,102139.19
2022-08-29T01:05:46.337Z,102140.13
2022-08-29T01:08:16.298Z,102142.78
2022-08-29T01:11:01.207Z,102139.25
2022-08-29T01:13:35.433Z,102140.91
2022-08-29T01:16:06.918Z,102139.16
2022-08-29T01:18:39.654Z,102148.03
2022-08-29T01:21:20.758Z,102140.88
2022-08-29T01:23:59.802Z,102137.31
2022-08-29T01:26:34.225Z,102145.25
2022-08-29T01:29:04.050Z,102147.88
2022-08-29T01:31:55.979Z,102146.97
2022-08-29T01:34:28.801Z,102155.81
2022-08-29T01:37:00.997Z,102147.78
2022-08-29T01:39:32.764Z,102147.75
2022-08-29T01:42:07.143Z,102154.00
2022-08-29T01:44:37.321Z,102153.94
2022-08-29T01:47:08.592Z,102148.59
2022-08-29T01:49:40.789Z,102149.44
2022-08-29T01:52:12.786Z,102159.13
2022-08-29T01:54:43.212Z,102165.25
2022-08-29T01:57:16.711Z,102155.47
2022-08-29T01:59:46.860Z,102153.75
2022-08-29T02:02:21.002Z,102159.13
2022-08-29T02:04:51.243Z,102164.41
2022-08-29T02:07:25.524Z,102160.69
2022-08-29T02:09:56.291Z,102165.06
2022-08-29T02:12:29.873Z,102161.41
2022-08-29T02:14:59.595Z,102160.47
2022-08-29T02:17:29.808Z,102166.69
2022-08-29T02:19:59.535Z,102157.88
2022-08-29T02:22:29.245Z,102157.97
2022-08-29T02:25:02.129Z,102163.34
2022-08-29T02:27:34.468Z,102162.47
2022-08-29T02:30:04.196Z,102160.69
2022-08-29T02:32:33.944Z,102160.69
2022-08-29T02:35:04.362Z,102157.19
2022-08-29T02:37:34.779Z,102153.66
2022-08-29T02:40:04.908Z,102165.28
2022-08-29T02:42:37.548Z,102158.22
2022-08-29T02:45:08.067Z,102163.56
2022-08-29T02:47:38.175Z,102156.41
2022-08-29T02:50:11.543Z,102153.66
2022-08-29T02:52:42.041Z,102150.97
2022-08-29T02:55:15.402Z,102157.25
2022-08-29T02:57:49.091Z,102156.34
2022-08-29T03:00:23.305Z,102155.41
2022-08-29T03:02:53.227Z,102146.53
2022-08-29T03:05:27.589Z,102144.66
2022-08-29T03:07:57.603Z,102150.81
2022-08-29T03:10:28.408Z,102159.63
2022-08-29T03:13:01.487Z,102153.38
2022-08-29T03:15:31.266Z,102147.16
2022-08-29T03:18:01.653Z,102158.75
2022-08-29T03:20:32.066Z,102151.66
2022-08-29T03:23:01.803Z,102155.25
2022-08-29T03:25:31.602Z,102142.81
2022-08-29T03:28:03.911Z,102155.25
2022-08-29T03:30:34.028Z,102145.50
2022-08-29T03:33:04.179Z,102149.97
2022-08-29T03:35:34.627Z,102149.09
2022-08-29T03:38:04.525Z,102153.53
2022-08-29T03:40:34.979Z,102155.38
2022-08-29T03:43:07.464Z,102143.91
2022-08-29T03:45:37.169Z,102150.13
2022-08-29T03:48:07.441Z,102152.81
2022-08-29T03:50:37.224Z,102155.47
2022-08-29T03:53:07.006Z,102147.53
2022-08-29T03:55:36.755Z,102144.88
2022-08-29T03:58:09.359Z,102143.97
2022-08-29T04:00:39.213Z,102144.88
2022-08-29T04:03:08.960Z,102140.41
2022-08-29T04:05:38.743Z,102148.41
2022-08-29T04:08:08.685Z,102150.19
2022-08-29T04:10:41.568Z,102146.63
2022-08-29T04:13:13.929Z,102144.88
2022-08-29T04:15:45.957Z,102150.19
2022-08-29T04:18:15.916Z,102141.38
2022-08-29T04:20:51.934Z,102145.75
2022-08-29T04:23:21.688Z,102151.97
2022-08-29T04:25:59.135Z,102148.41
2022-08-29T04:28:43.774Z,102135.97
2022-08-29T04:31:20.113Z,102144.88
2022-08-29T04:33:51.085Z,102143.06
2022-08-29T04:36:21.022Z,102151.91
2022-08-29T04:38:51.119Z,102154.56
2022-08-29T04:41:21.044Z,102142.03
2022-08-29T04:43:53.568Z,102145.59
2022-08-29T04:46:23.795Z,102157.13
2022-08-29T04:48:54.175Z,102160.63
2022-08-29T04:51:24.696Z,102161.53
2022-08-29T04:53:54.893Z,102172.13
2022-08-29T04:56:25.165Z,102163.19
2022-08-29T04:58:57.517Z,102165.84
2022-08-29T05:01:28.070Z,102165.84
2022-08-29T05:03:59.252Z,102176.50
2022-08-29T05:06:29.911Z,102173.00
2022-08-29T05:09:00.191Z,102171.25
2022-08-29T05:11:31.811Z,102173.13
2022-08-29T05:14:04.796Z,102167.84
2022-08-29T05:16:37.290Z,102173.22
2022-08-29T05:19:11.640Z,102163.56
2022-08-29T05:21:43.299Z,102168.06
2022-08-29T05:24:15.536Z,102173.47
2022-08-29T05:26:47.983Z,102175.25
2022-08-29T05:29:21.046Z,102177.13
2022-08-29T05:31:51.047Z,102177.16
2022-08-29T05:34:34.048Z,102178.09
2022-08-29T05:37:06.135Z,102175.47
2022-08-29T05:39:36.814Z,102181.75
2022-08-29T05:42:08.474Z,102177.31
2022-08-29T05:44:41.155Z,102188.06
2022-08-29T05:47:12.795Z,102182.78
2022-08-29T05:49:44.975Z,102186.38
2022-08-29T05:52:17.289Z,102188.19
2022-08-29T05:54:47.720Z,102186.50
2022-08-29T05:57:20.433Z,102191.84
2022-08-29T05:59:55.060Z,102190.97
2022-08-29T06:02:26.336Z,102193.66
2022-08-29T06:04:57.257Z,102200.72
2022-08-29T06:07:27.035Z,102204.31
2022-08-29T06:10:03.567Z,102206.94
2022-08-29T06:12:33.854Z,102204.28
2022-08-29T06:15:07.072Z,102198.97
2022-08-29T06:17:37.822Z,102197.25
2022-08-29T06:20:11.224Z,102200.03
2022-08-29T06:22:41.693Z,102199.28
2022-08-29T06:25:37.459Z,102204.78
2022-08-29T06:28:02.746Z,102199.53
2022-08-29T06:30:36.869Z,102201.41
2022-08-29T06:33:06.739Z,102205.06
2022-08-29T06:35:36.464Z,102209.59
2022-08-29T06:38:10.759Z,102209.69
2022-08-29T06:40:43.173Z,102199.06
2022-08-29T06:43:12.897Z,102203.53
2022-08-29T06:45:48.438Z,102205.38
2022-08-29T06:48:18.306Z,102203.72
2022-08-29T06:50:48.029Z,102213.53
2022-08-29T06:53:27.311Z,102209.13
2022-08-29T06:56:06.754Z,102214.47
2022-08-29T06:58:41.668Z,102220.72
2022-08-29T07:01:16.322Z,102213.66
2022-08-29T07:03:46.128Z,102211.03
2022-08-29T07:06:16.335Z,102216.41
2022-08-29T07:08:55.261Z,102216.41
2022-08-29T07:11:25.934Z,102208.41
2022-08-29T07:13:56.041Z,102214.66
2022-08-29T07:16:29.375Z,102210.22
2022-08-29T07:18:59.143Z,102212.97
2022-08-29T07:21:29.737Z,102216.63
2022-08-29T07:24:02.071Z,102204.16
2022-08-29T07:26:36.344Z,102210.34
2022-08-29T07:29:09.862Z,102212.13
2022-08-29T07:31:42.369Z,102213.06
2022-08-29T07:34:12.717Z,102212.25
2022-08-29T07:36:42.830Z,102218.56
2022-08-29T07:39:19.890Z,102221.31
2022-08-29T07:41:49.923Z,102218.66
2022-08-29T07:44:21.137Z,102219.59
2022-08-29T07:46:58.162Z,102211.63
2022-08-29T07:49:40.626Z,102207.25
2022-08-29T07:52:11.482Z,102215.31
2022-08-29T07:54:41.254Z,102216.22
2022-08-29T07:57:11.004Z,102219.75
2022-08-29T07:59:40.902Z,102225.97
2022-08-29T08:02:13.298Z,102224.22
2022-08-29T08:04:43.115Z,102229.50
2022-08-29T08:07:14.099Z,102230.38
2022-08-29T08:09:44.658Z,102220.53
2022-08-29T08:12:14.576Z,102228.53
2022-08-29T08:14:44.289Z,102224.97
2022-08-29T08:17:16.600Z,102226.81
2022-08-29T08:19:46.323Z,102225.06
2022-08-29T08:22:16.006Z,102234.97
2022-08-29T08:24:45.752Z,102236.06
2022-08-29T08:27:15.446Z,102227.41
2022-08-29T08:29:45.882Z,102223.19
2022-08-29T08:32:18.619Z,102224.34
2022-08-29T08:34:48.364Z,102222.72
2022-08-29T08:37:24.308Z,102223.69
2022-08-29T08:39:59.406Z,102221.16
2022-08-29T08:42:42.380Z,102230.22
2022-08-29T08:45:13.242Z,102226.78
2022-08-29T08:47:50.355Z,102228.66
2022-08-29T08:50:27.977Z,102234.09
2022-08-29T08:53:04.456Z,102229.72
2022-08-29T08:55:42.799Z,102240.47
2022-08-29T08:58:28.730Z,102238.66
2022-08-29T09:01:02.646Z,102241.19
2022-08-29T09:03:58.292Z,102242.91
2022-08-29T09:06:43.270Z,102239.34
2022-08-29T09:09:24.586Z,102226.84
2022-08-29T09:12:04.972Z,102237.38
2022-08-29T09:14:49.143Z,102230.06
2022-08-29T09:17:24.481Z,102229.94
2022-08-29T09:19:59.142Z,102233.47
2022-08-29T09:22:32.865Z,102241.47
2022-08-29T09:25:05.563Z,102240.63
2022-08-29T09:27:39.057Z,102238.00
2022-08-29T09:30:13.188Z,102241.72
2022-08-29T09:32:56.529Z,102237.38
2022-08-29T09:35:32.630Z,102236.59
2022-08-29T09:38:07.688Z,102238.34
2022-08-29T09:40:51.195Z,102240.22
2022-08-29T09:43:28.036Z,102243.78
2022-08-29T09:46:18.032Z,102245.53
2022-08-29T09:48:49.889Z,102244.50
2022-08-29T09:51:28.599Z,102232.88
2022-08-29T09:54:15.079Z,102237.34
2022-08-29T09:56:52.347Z,102243.59
2022-08-29T09:59:28.005Z,102249.97
2022-08-29T10:02:19.742Z,102258.09
2022-08-29T10:04:52.777Z,102251.00
2022-08-29T10:07:28.203Z,102247.41
2022-08-29T10:10:04.559Z,102241.19
2022-08-29T10:12:44.253Z,102252.84
2022-08-29T10:15:39.977Z,102251.03
2022-08-29T10:18:25.229Z,102253.72
2022-08-29T10:21:07.827Z,102255.56
2022-08-29T10:23:51.853Z,102259.19
2022-08-29T10:26:32.859Z,102242.25
2022-08-29T10:29:14.865Z,102250.25
2022-08-29T10:31:53.202Z,102251.09
2022-08-29T10:34:39.853Z,102243.84
2022-08-29T10:37:21.287Z,102257.97
2022-08-29T10:40:04.233Z,102252.53
2022-08-29T10:42:37.932Z,102268.56
2022-08-29T10:45:18.573Z,102268.53
2022-08-29T10:47:55.097Z,102262.19
2022-08-29T10:50:45.673Z,102261.25
2022-08-29T10:53:21.735Z,102256.69
2022-08-29T10:56:05.841Z,102254.84
2022-08-29T10:58:58.879Z,102254.78
2022-08-29T11:01:36.237Z,102260.03
2022-08-29T11:04:17.964Z,102250.16
2022-08-29T11:06:56.969Z,102253.72
2022-08-29T11:09:32.757Z,102252.91
2022-08-29T11:12:10.878Z,102246.75
2022-08-29T11:14:52.555Z,102246.84
2022-08-29T11:17:26.070Z,102253.13
2022-08-29T11:20:05.605Z,102243.38
2022-08-29T11:22:40.800Z,102243.38
2022-08-29T11:25:14.737Z,102247.00
2022-08-29T11:27:57.586Z,102248.00
2022-08-29T11:30:41.769Z,102248.91
2022-08-29T11:33:27.373Z,102253.38
2022-08-29T11:36:17.580Z,102258.78
2022-08-29T11:39:21.060Z,102248.19
2022-08-29T11:41:57.744Z,102248.34
2022-08-29T11:44:36.675Z,102241.31
2022-08-29T11:47:40.862Z,102244.94
2022-08-29T11:50:30.450Z,102244.06
2022-08-29T11:53:11.574Z,102253.09
2022-08-29T11:55:43.358Z,102239.69
2022-08-29T11:58:48.817Z,102244.19
2022-08-29T12:01:48.401Z,102238.00
2022-08-29T12:04:54.132Z,102245.19
2022-08-29T12:07:36.091Z,102240.78
2022-08-29T12:10:09.744Z,102243.47
2022-08-29T12:12:44.014Z,102247.00
2022-08-29T12:16:04.118Z,102245.97
2022-08-29T12:18:46.264Z,102244.94
2022-08-29T12:21:47.282Z,102240.44
2022-08-29T12:24:39.729Z,102238.56
2022-08-29T12:27:25.025Z,102244.78
2022-08-29T12:29:56.332Z,102248.28
2022-08-29T12:32:44.074Z,102250.94
2022-08-29T12:35:33.490Z,102245.50
2022-08-29T12:38:20.244Z,102251.63
2022-08-29T12:41:04.426Z,102242.59
2022-08-29T12:43:41.487Z,102246.16
2022-08-29T12:46:15.318Z,102236.38
2022-08-29T12:48:57.627Z,102238.19
2022-08-29T12:51:35.862Z,102238.22
2022-08-29T12:54:10.208Z,102232.81
2022-08-29T12:56:43.531Z,102228.41
2022-08-29T12:59:20.829Z,102233.75
2022-08-29T13:01:54.938Z,102235.56
2022-08-29T13:04:32.220Z,102230.34
2022-08-29T13:07:03.755Z,102236.72
2022-08-29T13:09:40.544Z,102242.16
2022-08-29T13:12:17.801Z,102233.22
2022-08-29T13:14:56.590Z,102229.69
2022-08-29T13:17:30.366Z,102230.59
2022-08-29T13:20:34.530Z,102225.28
2022-08-29T13:23:11.174Z,102239.56
2022-08-29T13:25:50.823Z,102229.78
2022-08-29T13:28:26.434Z,102224.44
2022-08-29T13:31:11.803Z,102221.75
2022-08-29T13:33:44.028Z,102228.88
2022-08-29T13:36:31.868Z,102219.88
2022-08-29T13:39:29.381Z,102223.47
2022-08-29T13:42:21.628Z,102218.13
2022-08-29T13:45:14.810Z,102224.41
2022-08-29T13:48:19.022Z,102210.13
2022-08-29T13:50:49.647Z,102214.53
2022-08-29T13:53:19.451Z,102214.47
2022-08-29T13:55:49.474Z,102212.59
2022-08-29T13:58:24.323Z,102214.31
2022-08-29T14:00:54.010Z,102210.72
2022-08-29T14:03:24.045Z,102212.41
2022-08-29T14:05:56.604Z,102215.06
2022-08-29T14:08:27.219Z,102211.47
2022-08-29T14:10:56.952Z,102206.13
2022-08-29T14:13:29.287Z,102208.91
2022-08-29T14:15:59.076Z,102214.34
2022-08-29T14:18:29.116Z,102209.09
2022-08-29T14:21:02.856Z,102206.50
2022-08-29T14:23:32.665Z,102205.63
2022-08-29T14:26:02.672Z,102211.00
2022-08-29T14:28:39.933Z,102215.41
2022-08-29T14:31:10.975Z,102207.31
2022-08-29T14:33:40.801Z,102210.00
2022-08-29T14:36:11.687Z,102206.38
2022-08-29T14:38:41.469Z,102206.28
2022-08-29T14:41:11.282Z,102215.16
2022-08-29T14:43:43.584Z,102208.84
2022-08-29T14:46:13.429Z,102210.59
2022-08-29T14:48:43.368Z,102205.25
2022-08-29T14:51:13.204Z,102200.78
2022-08-29T14:53:53.152Z,102193.63
2022-08-29T14:56:47.064Z,102190.88
2022-08-29T14:59:20.413Z,102196.22
2022-08-29T15:01:54.188Z,102187.31
2022-08-29T15:04:36.736Z,102190.94
2022-08-29T15:07:07.799Z,102188.28
2022-08-29T15:09:38.147Z,102186.53
2022-08-29T15:12:08.512Z,102184.78
2022-08-29T15:14:41.606Z,102191.91
2022-08-29T15:17:11.864Z,102195.53
2022-08-29T15:22:31.824Z,102189.19
2022-08-29T15:25:01.668Z,102200.69
2022-08-29T15:27:31.453Z,102200.63
2022-08-29T15:30:04.448Z,102201.50
2022-08-29T15:32:34.692Z,102198.81
2022-08-29T15:35:04.433Z,102205.94
2022-08-29T15:37:34.243Z,102188.13
2022-08-29T15:40:04.385Z,102189.91
2022-08-29T15:42:34.351Z,102189.03
2022-08-29T15:45:10.164Z,102182.78
2022-08-29T15:47:46.244Z,102182.78
2022-08-29T15:50:16.571Z,102177.38
2022-08-29T15:52:46.613Z,102179.16
2022-08-29T15:55:16.328Z,102180.88
2022-08-29T15:57:52.431Z,102184.41
2022-08-29T16:00:30.341Z,102184.38
2022-08-29T16:03:02.799Z,102169.06
2022-08-29T16:05:33.238Z,102175.28
2022-08-29T16:08:03.567Z,102164.53
2022-08-29T16:10:34.807Z,102166.28
2022-08-29T16:13:06.233Z,102169.78
2022-08-29T16:15:38.907Z,102166.09
2022-08-29T16:18:08.869Z,102164.28
2022-08-29T16:20:41.365Z,102164.22
2022-08-29T16:23:11.636Z,102157.94
2022-08-29T16:25:44.257Z,102162.28
2022-08-29T16:28:14.303Z,102158.72
2022-08-29T16:30:49.772Z,102159.56
2022-08-29T16:33:19.734Z,102154.22
2022-08-29T16:35:49.506Z,102158.72
2022-08-29T16:38:19.448Z,102156.91
2022-08-29T16:40:50.416Z,102164.00
2022-08-29T16:43:20.479Z,102171.00
2022-08-29T16:45:53.513Z,102159.34
2022-08-29T16:48:24.305Z,102167.34
2022-08-29T16:50:54.090Z,102161.88
2022-08-29T16:53:23.884Z,102159.22
2022-08-29T16:55:53.630Z,102160.91
2022-08-29T16:58:35.811Z,102169.78
2022-08-29T17:01:08.337Z,102164.34
2022-08-29T17:03:38.186Z,102168.75
2022-08-29T17:06:08.547Z,102163.44
2022-08-29T17:08:35.473Z,102164.31
2022-08-29T17:11:02.405Z,102162.50
2022-08-29T17:13:29.437Z,102167.81
2022-08-29T17:16:01.341Z,102158.00
2022-08-29T17:18:33.998Z,102153.59
2022-08-29T17:21:04.046Z,102155.34
2022-08-29T17:23:35.870Z,102159.75
2022-08-29T17:26:07.824Z,102157.94
2022-08-29T17:28:38.881Z,102166.75
2022-08-29T17:31:09.212Z,102166.69
2022-08-29T17:33:41.690Z,102165.78
2022-08-29T17:36:13.151Z,102171.97
2022-08-29T17:38:45.175Z,102172.81
2022-08-29T17:41:17.319Z,102177.22
2022-08-29T17:43:48.313Z,102171.84
2022-08-29T17:46:18.906Z,102175.38
2022-08-29T17:48:51.487Z,102175.34
2022-08-29T17:51:21.171Z,102177.94
2022-08-29T17:53:52.861Z,102175.19
2022-08-29T17:56:29.546Z,102177.78
2022-08-29T17:59:01.056Z,102180.44
2022-08-29T18:01:32.415Z,102183.94
2022-08-29T18:04:05.259Z,102182.13
2022-08-29T18:06:35.035Z,102176.69
2022-08-29T18:09:04.923Z,102178.47
2022-08-29T18:11:34.860Z,102176.69
2022-08-29T18:14:04.628Z,102185.53
2022-08-29T18:16:34.432Z,102185.50
2022-08-29T18:19:07.365Z,102180.06
2022-08-29T18:21:38.179Z,102186.25
2022-08-29T18:24:08.468Z,102195.13
2022-08-29T18:26:38.395Z,102196.03
2022-08-29T18:29:08.252Z,102197.75
2022-08-29T18:31:38.339Z,102198.69
2022-08-29T18:34:11.229Z,102196.91
2022-08-29T18:36:43.915Z,102195.97
2022-08-29T18:39:14.723Z,102201.25
2022-08-29T18:41:45.246Z,102205.72
2022-08-29T18:44:15.225Z,102203.00
2022-08-29T18:46:47.886Z,102204.72
2022-08-29T18:49:41.453Z,102210.00
2022-08-29T18:52:11.835Z,102215.19
2022-08-29T18:54:41.555Z,102218.69
2022-08-29T18:57:11.811Z,102202.56
2022-08-29T18:59:42.141Z,102203.31
2022-08-29T19:02:13.090Z,102214.72
2022-08-29T19:04:45.620Z,102214.63
2022-08-29T19:07:15.741Z,102218.94
2022-08-29T19:09:54.140Z,102226.78
2022-08-29T19:12:23.903Z,102227.63
2022-08-29T19:14:54.249Z,102226.69
2022-08-29T19:17:24.026Z,102237.31
2022-08-29T19:20:10.442Z,102243.50
2022-08-29T19:22:42.254Z,102243.47
2022-08-29T19:25:12.664Z,102244.28
2022-08-29T19:27:43.912Z,102243.34
2022-08-29T19:30:15.642Z,102241.47
2022-08-29T19:32:46.025Z,102236.91
2022-08-29T19:35:18.555Z,102233.25
2022-08-29T19:37:48.517Z,102238.56
2022-08-29T19:40:20.761Z,102244.78
2022-08-29T19:42:51.344Z,102240.38
2022-08-29T19:45:22.484Z,102230.56
2022-08-29T19:47:52.507Z,102238.50
2022-08-29T19:50:26.405Z,102235.78
2022-08-29T19:52:56.606Z,102229.63
2022-08-29T19:55:27.255Z,102231.47
2022-08-29T19:57:57.210Z,102227.06
2022-08-29T20:00:27.872Z,102237.72
2022-08-29T20:03:00.064Z,102235.06
2022-08-29T20:05:32.397Z,102239.50
2022-08-29T20:08:02.123Z,102236.00
2022-08-29T20:10:35.037Z,102238.78
2022-08-29T20:13:07.039Z,102242.41
2022-08-29T20:15:36.919Z,102242.53
2022-08-29T20:18:07.055Z,102242.59
2022-08-29T20:20:42.297Z,102243.53
2022-08-29T20:23:13.217Z,102243.53
2022-08-29T20:25:43.509Z,102244.41
2022-08-29T20:28:15.823Z,102251.47
2022-08-29T20:30:46.343Z,102241.63
2022-08-29T20:33:19.958Z,102247.00
2022-08-29T20:36:13.595Z,102241.69
2022-08-29T20:38:43.312Z,102244.25
2022-08-29T20:41:13.041Z,102245.19
2022-08-29T20:43:42.840Z,102246.13
2022-08-29T20:46:14.425Z,102247.84
2022-08-29T20:48:44.247Z,102243.34
2022-08-29T20:51:16.672Z,102245.13
2022-08-29T20:53:46.399Z,102241.56
2022-08-29T20:56:16.151Z,102243.31
2022-08-29T20:58:46.738Z,102247.75
2022-08-29T21:01:16.622Z,102245.06
2022-08-29T21:03:58.822Z,102247.72
2022-08-29T21:06:31.433Z,102249.44
2022-08-29T21:09:01.564Z,102260.06
2022-08-29T21:11:31.338Z,102252.06
2022-08-29T21:14:01.141Z,102252.97
2022-08-29T21:16:30.942Z,102256.56
2022-08-29T21:19:01.023Z,102252.06
2022-08-29T21:21:33.336Z,102252.06
2022-08-29T21:24:03.065Z,102252.06
2022-08-29T21:26:32.947Z,102248.56
2022-08-29T21:29:03.000Z,102249.50
2022-08-29T21:31:32.813Z,102250.47
2022-08-29T21:34:06.892Z,102248.72
2022-08-29T21:36:40.621Z,102247.84
2022-08-29T21:39:12.236Z,102244.34
2022-08-29T21:41:47.147Z,102244.34
2022-08-29T21:44:18.039Z,102242.53
2022-08-29T21:46:49.317Z,102244.34
2022-08-29T21:49:21.933Z,102240.75
2022-08-29T21:51:54.277Z,102242.47
2022-08-29T21:54:24.006Z,102251.28
2022-08-29T21:56:53.723Z,102249.44
2022-08-29T21:59:23.658Z,102235.13
2022-08-29T22:01:54.559Z,102237.78
2022-08-29T22:04:28.995Z,102231.50
2022-08-29T22:07:01.987Z,102238.56
2022-08-29T22:09:32.226Z,102232.28
2022-08-29T22:12:03.890Z,102238.44
2022-08-29T22:14:46.101Z,102234.78
2022-08-29T22:17:16.925Z,102238.22
2022-08-29T22:19:47.560Z,102245.13
2022-08-29T22:22:19.852Z,102236.94
2022-08-29T22:24:49.629Z,102232.38
2022-08-29T22:27:19.568Z,102230.50
2022-08-29T22:29:49.301Z,102237.47
2022-08-29T22:32:19.029Z,102240.91
2022-08-29T22:34:48.913Z,102242.59
2022-08-29T22:37:21.737Z,102230.94
2022-08-29T22:39:51.468Z,102237.03
2022-08-29T22:42:21.208Z,102240.50
2022-08-29T22:45:06.407Z,102243.03
2022-08-29T22:47:36.146Z,102242.09
2022-08-29T22:50:06.310Z,102237.59
2022-08-29T22:52:38.961Z,102231.38
2022-08-29T22:55:09.276Z,102234.00
2022-08-29T22:57:39.046Z,102230.44
2022-08-29T23:00:11.578Z,102231.25
2022-08-29T23:02:41.372Z,102233.84
2022-08-29T23:05:11.625Z,102245.38
2022-08-29T23:07:44.347Z,102246.28
2022-08-29T23:10:14.783Z,102246.28
2022-08-29T23:12:44.508Z,102246.34
2022-08-29T23:15:17.469Z,102244.56
2022-08-29T23:17:47.749Z,102245.53
2022-08-29T23:20:19.314Z,102245.56
2022-08-29T23:22:51.809Z,102242.91
2022-08-29T23:25:21.861Z,102249.16
2022-08-29T23:27:51.561Z,102250.13
2022-08-29T23:30:21.299Z,102250.19
2022-08-29T23:32:51.016Z,102251.97
2022-08-29T23:35:20.719Z,102247.53
2022-08-29T23:37:53.041Z,102241.31
2022-08-29T23:40:22.901Z,102248.47
2022-08-29T23:42:52.672Z,102249.38
2022-08-29T23:45:22.487Z,102243.22
2022-08-29T23:47:52.659Z,102245.06
2022-08-29T23:50:22.580Z,102240.56
2022-08-29T23:52:54.930Z,102245.06
2022-08-29T23:55:24.781Z,102240.69
2022-08-29T23:57:55.147Z,102254.91
